createdAt,value
2019-01-16T00:01:49.325Z,5.40
2019-01-16T00:04:28.307Z,5.30
2019-01-16T00:07:06.034Z,5.40
2019-01-16T00:09:56.172Z,5.30
2019-01-16T00:12:46.372Z,5.20
2019-01-16T00:15:31.872Z,5.20
2019-01-16T00:18:23.049Z,5.10
2019-01-16T00:21:02.515Z,5.20
2019-01-16T00:23:48.518Z,5.20
2019-01-16T00:26:38.923Z,5.20
2019-01-16T00:29:35.131Z,5.20
2019-01-16T00:32:24.190Z,5.40
2019-01-16T00:35:11.594Z,5.20
2019-01-16T00:38:04.341Z,5.20
2019-01-16T00:41:06.784Z,5.20
2019-01-16T00:43:59.962Z,5.20
2019-01-16T00:46:47.472Z,5.20
2019-01-16T00:49:43.933Z,5.20
2019-01-16T00:52:31.333Z,5.20
2019-01-16T00:55:21.423Z,5.10
2019-01-16T00:58:08.850Z,5.10
2019-01-16T01:00:54.806Z,5.10
2019-01-16T01:03:42.228Z,5.10
2019-01-16T01:06:28.324Z,5.10
2019-01-16T01:09:11.593Z,5.10
2019-01-16T01:12:13.957Z,5.20
2019-01-16T01:15:01.337Z,5.10
2019-01-16T01:17:38.453Z,5.20
2019-01-16T01:20:38.567Z,5.20
2019-01-16T01:23:34.950Z,5.10
2019-01-16T01:26:29.696Z,5.10
2019-01-16T01:29:35.445Z,5.10
2019-01-16T01:32:21.750Z,5.20
2019-01-16T01:35:11.475Z,5.10
2019-01-16T01:38:16.919Z,5.50
2019-01-16T01:41:09.940Z,5.70
2019-01-16T01:43:58.824Z,5.20
2019-01-16T01:46:44.812Z,5.20
2019-01-16T01:49:47.542Z,5.20
2019-01-16T01:52:34.710Z,5.10
2019-01-16T01:55:25.117Z,5.10
2019-01-16T01:58:03.640Z,5.10
2019-01-16T02:00:42.708Z,5.20
2019-01-16T02:03:39.107Z,5.20
2019-01-16T02:06:27.773Z,5.10
2019-01-16T02:09:14.195Z,5.10
2019-01-16T02:12:16.952Z,5.20
2019-01-16T02:15:07.105Z,5.20
2019-01-16T02:18:00.321Z,5.30
2019-01-16T02:20:50.452Z,5.30
2019-01-16T02:23:35.632Z,5.20
2019-01-16T02:26:22.050Z,5.30
2019-01-16T02:29:18.554Z,5.20
2019-01-16T02:32:04.733Z,5.80
2019-01-16T02:34:50.353Z,5.30
2019-01-16T02:37:35.319Z,5.30
2019-01-16T02:40:40.727Z,5.20
2019-01-16T02:43:31.087Z,6.10
2019-01-16T02:46:21.507Z,5.30
2019-01-16T02:48:56.251Z,5.40
2019-01-16T02:51:39.121Z,5.30
2019-01-16T02:54:16.562Z,5.40
2019-01-16T02:56:58.685Z,5.40
2019-01-16T02:59:33.905Z,5.40
2019-01-16T03:02:17.163Z,5.40
2019-01-16T03:05:03.051Z,5.40
2019-01-16T03:07:53.951Z,5.70
2019-01-16T03:10:44.489Z,5.40
2019-01-16T03:13:30.426Z,5.40
2019-01-16T03:16:20.329Z,5.50
2019-01-16T03:19:16.573Z,5.50
2019-01-16T03:22:03.977Z,5.40
2019-01-16T03:25:06.464Z,5.70
2019-01-16T03:27:59.940Z,5.50
2019-01-16T03:30:50.226Z,5.40
2019-01-16T03:33:49.664Z,5.50
2019-01-16T03:36:29.787Z,5.40
2019-01-16T03:39:06.294Z,5.50
2019-01-16T03:41:53.679Z,5.60
2019-01-16T03:44:48.486Z,5.40
2019-01-16T03:47:38.866Z,5.40
2019-01-16T03:50:26.657Z,5.30
2019-01-16T03:53:20.102Z,5.30
2019-01-16T03:56:07.464Z,5.40
2019-01-16T03:58:53.357Z,5.30
2019-01-16T04:01:46.690Z,5.30
2019-01-16T04:04:37.075Z,5.40
2019-01-16T04:07:33.590Z,5.30
2019-01-16T04:10:39.309Z,5.30
2019-01-16T04:13:23.118Z,5.30
2019-01-16T04:16:11.947Z,5.30
2019-01-16T04:18:57.938Z,5.30
2019-01-16T04:21:43.132Z,5.30
2019-01-16T04:24:45.947Z,5.20
2019-01-16T04:27:36.159Z,5.30
2019-01-16T04:30:25.990Z,5.30
2019-01-16T04:33:17.604Z,5.30
2019-01-16T04:36:03.652Z,5.30
2019-01-16T04:38:48.025Z,5.20
2019-01-16T04:41:40.919Z,5.30
2019-01-16T04:44:28.287Z,5.10
2019-01-16T04:47:17.619Z,5.50
2019-01-16T04:50:01.128Z,5.30
2019-01-16T04:53:00.559Z,5.30
2019-01-16T04:55:47.950Z,5.30
2019-01-16T04:58:41.158Z,5.40
2019-01-16T05:01:28.557Z,5.30
2019-01-16T05:04:24.882Z,5.40
2019-01-16T05:07:30.584Z,5.40
2019-01-16T05:10:17.998Z,5.40
2019-01-16T05:13:14.412Z,5.40
2019-01-16T05:16:01.822Z,5.40
2019-01-16T05:19:04.538Z,5.50
2019-01-16T05:21:50.516Z,5.70
2019-01-16T05:24:36.233Z,5.50
2019-01-16T05:27:32.928Z,5.50
2019-01-16T05:30:23.042Z,5.50
2019-01-16T05:33:16.417Z,5.40
2019-01-16T05:36:06.274Z,5.40
2019-01-16T05:38:53.741Z,5.40
2019-01-16T05:41:43.830Z,5.40
2019-01-16T05:44:29.796Z,5.50
2019-01-16T05:47:11.034Z,5.70
2019-01-16T05:49:56.760Z,5.40
2019-01-16T05:52:41.798Z,5.50
2019-01-16T05:55:41.214Z,5.50
2019-01-16T05:58:46.947Z,5.30
2019-01-16T06:01:31.697Z,5.50
2019-01-16T06:04:17.693Z,5.50
2019-01-16T06:07:03.427Z,5.50
2019-01-16T06:09:49.872Z,5.60
2019-01-16T06:12:28.551Z,5.70
2019-01-16T06:15:34.258Z,5.70
2019-01-16T06:18:20.803Z,5.60
2019-01-16T06:21:08.186Z,5.70
2019-01-16T06:24:10.549Z,5.70
2019-01-16T06:26:56.478Z,5.70
2019-01-16T06:29:52.415Z,5.70
2019-01-16T06:32:29.275Z,5.60
2019-01-16T06:35:15.031Z,5.60
2019-01-16T06:38:28.984Z,5.50
2019-01-16T06:41:18.906Z,6.10
2019-01-16T06:44:04.803Z,5.60
2019-01-16T06:46:50.377Z,5.50
2019-01-16T06:49:40.554Z,5.50
2019-01-16T06:52:29.251Z,5.90
2019-01-16T06:55:16.677Z,5.60
2019-01-16T06:58:02.725Z,5.60
2019-01-16T07:00:46.204Z,5.60
2019-01-16T07:03:39.138Z,5.60
2019-01-16T07:06:20.433Z,5.60
2019-01-16T07:09:01.759Z,5.70
2019-01-16T07:11:40.431Z,5.70
2019-01-16T07:14:20.371Z,5.70
2019-01-16T07:17:27.202Z,5.60
2019-01-16T07:20:12.110Z,5.60
2019-01-16T07:23:02.025Z,5.60
2019-01-16T07:25:52.485Z,5.60
2019-01-16T07:28:58.013Z,5.50
2019-01-16T07:32:03.553Z,5.60
2019-01-16T07:34:53.268Z,5.50
2019-01-16T07:37:39.175Z,5.50
2019-01-16T07:40:26.879Z,5.40
2019-01-16T07:43:05.526Z,5.50
2019-01-16T07:45:50.559Z,5.40
2019-01-16T07:48:43.728Z,5.50
2019-01-16T07:51:33.885Z,5.60
2019-01-16T07:54:33.164Z,5.60
2019-01-16T07:57:29.084Z,5.60
2019-01-16T08:00:15.537Z,5.70
2019-01-16T08:03:05.918Z,5.60
2019-01-16T08:05:54.715Z,5.70
2019-01-16T08:09:00.290Z,5.70
2019-01-16T08:11:48.185Z,5.70
2019-01-16T08:14:44.644Z,5.70
2019-01-16T08:17:34.882Z,5.80
2019-01-16T08:20:30.482Z,5.70
2019-01-16T08:23:20.436Z,5.90
2019-01-16T08:26:07.790Z,5.80
2019-01-16T08:28:54.238Z,5.90
2019-01-16T08:31:40.724Z,5.90
2019-01-16T08:34:30.875Z,6.40
2019-01-16T08:37:10.010Z,6.00
2019-01-16T08:39:56.290Z,6.00
2019-01-16T08:42:55.974Z,6.00
2019-01-16T08:45:41.944Z,6.00
2019-01-16T08:48:25.455Z,5.90
2019-01-16T08:51:25.168Z,5.90
2019-01-16T08:54:30.814Z,6.00
2019-01-16T08:57:33.995Z,6.00
2019-01-16T09:00:20.389Z,6.00
2019-01-16T09:03:06.326Z,6.00
2019-01-16T09:05:52.578Z,6.40
2019-01-16T09:08:52.238Z,6.00
2019-01-16T09:11:43.082Z,6.00
2019-01-16T09:14:21.355Z,6.00
2019-01-16T09:17:04.549Z,6.10
2019-01-16T09:19:38.540Z,6.10
2019-01-16T09:22:24.566Z,6.10
2019-01-16T09:25:10.376Z,6.10
2019-01-16T09:28:04.219Z,6.00
2019-01-16T09:30:54.423Z,6.10
2019-01-16T09:33:48.704Z,6.10
2019-01-16T09:36:34.310Z,6.00
2019-01-16T09:39:20.326Z,6.10
2019-01-16T09:42:10.704Z,6.00
2019-01-16T09:45:04.312Z,5.90
2019-01-16T09:47:47.656Z,5.90
2019-01-16T09:50:27.549Z,5.80
2019-01-16T09:53:17.468Z,5.80
2019-01-16T09:56:07.608Z,5.70
2019-01-16T09:59:06.770Z,5.80
2019-01-16T10:02:00.409Z,5.90
2019-01-16T10:04:40.519Z,5.90
2019-01-16T10:07:30.889Z,5.90
2019-01-16T10:10:16.889Z,6.00
2019-01-16T10:13:13.563Z,5.90
2019-01-16T10:16:01.826Z,5.90
2019-01-16T10:19:00.255Z,5.90
2019-01-16T10:21:45.945Z,6.00
2019-01-16T10:24:45.104Z,5.90
2019-01-16T10:27:35.225Z,5.90
2019-01-16T10:30:24.188Z,5.90
2019-01-16T10:33:23.130Z,6.00
2019-01-16T10:36:16.351Z,6.20
2019-01-16T10:39:03.694Z,6.50
2019-01-16T10:41:51.100Z,6.50
2019-01-16T10:44:34.351Z,6.70
2019-01-16T10:47:31.256Z,6.80
2019-01-16T10:50:17.336Z,6.80
2019-01-16T10:53:10.765Z,6.70
2019-01-16T10:55:57.961Z,6.80
2019-01-16T10:58:54.416Z,6.70
2019-01-16T11:01:40.368Z,6.70
2019-01-16T11:04:27.786Z,6.60
2019-01-16T11:07:09.521Z,6.80
2019-01-16T11:09:51.907Z,6.90
2019-01-16T11:12:39.332Z,6.80
2019-01-16T11:15:24.965Z,6.80
2019-01-16T11:18:11.159Z,6.90
2019-01-16T11:20:57.395Z,6.90
2019-01-16T11:23:48.781Z,6.80
2019-01-16T11:26:27.450Z,6.60
2019-01-16T11:29:20.334Z,6.70
2019-01-16T11:32:16.990Z,6.60
2019-01-16T11:35:19.465Z,6.40
2019-01-16T11:38:15.039Z,6.70
2019-01-16T11:41:09.257Z,6.50
2019-01-16T11:43:54.518Z,6.50
2019-01-16T11:46:32.106Z,6.60
2019-01-16T11:49:25.560Z,6.40
2019-01-16T11:52:18.175Z,6.60
2019-01-16T11:55:23.931Z,6.60
2019-01-16T11:58:09.812Z,6.60
2019-01-16T12:00:57.205Z,6.70
2019-01-16T12:04:00.247Z,6.70
2019-01-16T12:06:46.336Z,6.70
2019-01-16T12:09:41.599Z,6.60
2019-01-16T12:12:27.519Z,7.00
2019-01-16T12:15:20.577Z,6.60
2019-01-16T12:18:44.768Z,6.60
2019-01-16T12:21:41.009Z,6.60
2019-01-16T12:24:22.734Z,6.70
2019-01-16T12:27:32.472Z,6.90
2019-01-16T12:30:16.648Z,6.90
2019-01-16T12:32:53.138Z,7.00
2019-01-16T12:35:49.473Z,7.20
2019-01-16T12:38:43.116Z,7.00
2019-01-16T12:41:29.381Z,7.00
2019-01-16T12:44:17.883Z,6.90
2019-01-16T12:47:11.788Z,6.90
2019-01-16T12:49:59.600Z,7.00
2019-01-16T12:52:35.832Z,6.90
2019-01-16T12:55:43.022Z,7.00
2019-01-16T12:58:30.463Z,7.10
2019-01-16T13:01:08.299Z,7.00
2019-01-16T13:03:43.814Z,6.80
2019-01-16T13:06:34.173Z,6.80
2019-01-16T13:09:21.752Z,6.80
2019-01-16T13:12:04.340Z,6.70
2019-01-16T13:15:01.171Z,6.80
2019-01-16T13:17:52.458Z,6.90
2019-01-16T13:20:52.660Z,6.90
2019-01-16T13:23:49.031Z,6.80
2019-01-16T13:26:35.086Z,6.80
2019-01-16T13:29:37.880Z,6.70
2019-01-16T13:32:18.528Z,6.90
2019-01-16T13:35:04.493Z,6.90
2019-01-16T13:37:50.884Z,6.90
2019-01-16T13:40:30.658Z,6.80
2019-01-16T13:43:10.893Z,6.80
2019-01-16T13:45:58.332Z,7.00
2019-01-16T13:48:53.054Z,7.30
2019-01-16T13:51:46.122Z,6.90
2019-01-16T13:54:33.028Z,7.00
2019-01-16T13:57:35.492Z,6.90
2019-01-16T14:00:19.739Z,6.80
2019-01-16T14:03:05.680Z,6.80
2019-01-16T14:05:52.143Z,6.70
2019-01-16T14:08:48.835Z,6.70
2019-01-16T14:11:24.021Z,6.70
2019-01-16T14:14:29.684Z,6.70
2019-01-16T14:17:29.327Z,6.80
2019-01-16T14:20:10.377Z,6.80
2019-01-16T14:22:56.267Z,6.90
2019-01-16T14:26:02.006Z,6.80
2019-01-16T14:28:47.290Z,6.90
2019-01-16T14:31:37.925Z,7.10
2019-01-16T14:34:18.801Z,7.20
2019-01-16T14:40:12.845Z,7.30
2019-01-16T14:43:00.996Z,7.30
2019-01-16T14:45:46.989Z,7.30
2019-01-16T14:48:45.114Z,7.50
2019-01-16T14:51:35.721Z,7.20
2019-01-16T14:54:25.228Z,7.10
2019-01-16T14:57:33.219Z,7.00
2019-01-16T15:00:20.022Z,6.90
2019-01-16T15:03:07.088Z,6.70
2019-01-16T15:05:53.315Z,6.70
2019-01-16T15:08:35.131Z,7.30
2019-01-16T15:11:26.984Z,6.70
2019-01-16T15:14:20.429Z,6.60
2019-01-16T15:17:21.195Z,6.60
2019-01-16T15:20:20.395Z,6.50
2019-01-16T15:23:06.648Z,6.60
2019-01-16T15:25:54.046Z,6.30
2019-01-16T15:28:47.755Z,6.30
2019-01-16T15:31:33.193Z,6.20
2019-01-16T15:34:24.707Z,6.10
2019-01-16T15:37:08.981Z,6.00
2019-01-16T15:40:10.135Z,5.80
2019-01-16T15:43:27.025Z,5.70
2019-01-16T15:46:22.544Z,5.70
2019-01-16T15:49:27.307Z,5.50
2019-01-16T15:52:28.301Z,5.40
2019-01-16T15:55:15.909Z,5.20
2019-01-16T15:58:25.029Z,5.40
2019-01-16T16:01:14.457Z,5.10
2019-01-16T16:04:11.856Z,4.70
2019-01-16T16:07:21.892Z,4.60
2019-01-16T16:10:12.017Z,4.50
2019-01-16T16:12:51.827Z,4.30
2019-01-16T16:16:25.900Z,4.20
2019-01-16T16:24:11.088Z,4.10
2019-01-16T16:32:09.235Z,4.20
2019-01-16T16:35:11.442Z,3.60
2019-01-16T16:37:57.482Z,4.10
2019-01-16T16:40:44.859Z,4.20
2019-01-16T16:43:35.204Z,4.20
2019-01-16T16:46:21.251Z,4.20
2019-01-16T16:49:11.301Z,4.20
2019-01-16T16:52:12.256Z,4.20
2019-01-16T16:55:15.409Z,4.20
2019-01-16T16:58:04.264Z,4.10
2019-01-16T17:00:50.909Z,4.00
2019-01-16T17:03:42.623Z,4.00
2019-01-16T17:06:30.052Z,4.00
2019-01-16T17:09:16.549Z,4.10
2019-01-16T17:12:08.725Z,3.90
2019-01-16T17:14:55.184Z,3.80
2019-01-16T17:17:45.710Z,3.70
2019-01-16T17:20:34.223Z,3.70
2019-01-16T17:23:25.230Z,3.60
2019-01-16T17:26:02.094Z,3.70
2019-01-16T17:28:52.693Z,3.70
2019-01-16T17:31:38.965Z,3.80
2019-01-16T17:34:17.050Z,3.90
2019-01-16T17:37:15.645Z,3.90
2019-01-16T17:40:09.374Z,4.10
2019-01-16T17:43:12.321Z,3.80
2019-01-16T17:45:58.647Z,3.70
2019-01-16T17:48:50.413Z,3.60
2019-01-16T17:51:39.982Z,3.40
2019-01-16T17:54:46.242Z,3.30
2019-01-16T17:57:27.642Z,3.30
2019-01-16T18:00:15.305Z,3.80
2019-01-16T18:03:10.225Z,3.30
2019-01-16T18:05:56.688Z,3.20
2019-01-16T18:08:38.685Z,3.10
2019-01-16T18:11:19.401Z,3.20
2019-01-16T18:14:21.974Z,3.20
2019-01-16T18:17:12.496Z,3.20
2019-01-16T18:20:12.360Z,3.30
2019-01-16T18:23:00.871Z,3.30
2019-01-16T18:25:57.189Z,3.60
2019-01-16T18:28:47.889Z,3.30
2019-01-16T18:31:45.644Z,3.30
2019-01-16T18:34:36.277Z,3.30
2019-01-16T18:37:36.623Z,3.30
2019-01-16T18:40:16.613Z,3.30
2019-01-16T18:43:47.200Z,3.20
2019-01-16T18:46:44.126Z,2.90
2019-01-16T18:49:33.375Z,3.00
2019-01-16T18:52:29.444Z,2.90
2019-01-16T18:55:15.381Z,2.80
2019-01-16T18:58:09.569Z,2.60
2019-01-16T19:01:04.067Z,2.60
2019-01-16T19:04:09.971Z,2.50
2019-01-16T19:06:56.929Z,2.40
2019-01-16T19:09:57.406Z,2.30
2019-01-16T19:12:47.303Z,2.30
2019-01-16T19:15:39.936Z,1.90
2019-01-16T19:18:37.718Z,2.20
2019-01-16T19:21:36.028Z,2.40
2019-01-16T19:24:32.949Z,1.90
2019-01-16T19:27:41.999Z,2.40
2019-01-16T19:30:37.308Z,2.40
2019-01-16T19:33:13.094Z,2.40
2019-01-16T19:35:51.075Z,2.40
2019-01-16T19:38:44.929Z,2.40
2019-01-16T19:41:47.482Z,2.30
2019-01-16T19:44:27.490Z,2.20
2019-01-16T19:47:13.521Z,2.10
2019-01-16T19:49:59.773Z,2.10
2019-01-16T19:53:04.693Z,2.10
2019-01-16T19:56:00.780Z,2.20
2019-01-16T19:58:39.283Z,2.00
2019-01-16T20:01:35.676Z,1.90
2019-01-16T20:04:26.657Z,1.90
2019-01-16T20:07:19.252Z,1.80
2019-01-16T20:10:05.319Z,1.90
2019-01-16T20:12:55.792Z,1.70
2019-01-16T20:15:43.280Z,1.60
2019-01-16T20:18:37.859Z,1.50
2019-01-16T20:21:31.620Z,1.50
2019-01-16T20:24:17.570Z,1.40
2019-01-16T20:27:17.146Z,1.90
2019-01-16T20:30:11.812Z,1.50
2019-01-16T20:33:11.241Z,1.40
2019-01-16T20:36:01.227Z,1.40
2019-01-16T20:38:47.687Z,1.80
2019-01-16T20:41:57.630Z,1.30
2019-01-16T20:44:38.841Z,2.40
2019-01-16T20:47:57.846Z,1.20
2019-01-16T20:50:43.768Z,1.20
2019-01-16T20:53:30.033Z,1.20
2019-01-16T20:56:20.600Z,1.20
2019-01-16T20:59:44.658Z,1.20
2019-01-16T21:02:44.108Z,1.90
2019-01-16T21:05:30.099Z,1.10
2019-01-16T21:08:11.487Z,1.00
2019-01-16T21:10:53.394Z,1.00
2019-01-16T21:13:52.276Z,0.90
2019-01-16T21:16:44.239Z,0.90
2019-01-16T21:19:50.105Z,0.80
2019-01-16T21:22:27.199Z,0.90
2019-01-16T21:25:16.358Z,1.50
2019-01-16T21:28:08.720Z,0.90
2019-01-16T21:30:56.168Z,0.90
2019-01-16T21:33:49.588Z,0.90
2019-01-16T21:36:42.651Z,0.90
2019-01-16T21:39:35.803Z,0.90
2019-01-16T21:42:29.154Z,0.90
2019-01-16T21:45:06.901Z,0.90
2019-01-16T21:48:29.129Z,1.30
2019-01-16T21:51:25.754Z,0.90
2019-01-16T21:54:18.970Z,0.40
2019-01-16T21:57:24.042Z,0.90
2019-01-16T22:00:20.279Z,0.90
2019-01-16T22:03:06.353Z,0.90
2019-01-16T22:05:53.786Z,0.90
2019-01-16T22:08:30.818Z,0.90
2019-01-16T22:11:16.961Z,0.90
2019-01-16T22:14:16.750Z,1.00
2019-01-16T22:17:07.544Z,1.00
2019-01-16T22:19:53.558Z,1.00
2019-01-16T22:22:49.885Z,1.00
2019-01-16T22:25:41.209Z,1.00
2019-01-16T22:28:32.358Z,1.10
2019-01-16T22:31:13.375Z,1.10
2019-01-16T22:34:08.272Z,1.10
2019-01-16T22:37:03.259Z,1.20
2019-01-16T22:39:59.380Z,1.90
2019-01-16T22:42:44.778Z,1.20
2019-01-16T22:45:30.823Z,1.20
2019-01-16T22:48:24.924Z,1.20
2019-01-16T22:51:02.407Z,1.10
2019-01-16T22:53:52.889Z,1.10
2019-01-16T22:56:58.153Z,1.70
2019-01-16T22:59:48.380Z,1.20
2019-01-16T23:02:34.542Z,1.10
2019-01-16T23:05:21.993Z,1.00
2019-01-16T23:08:44.061Z,1.30
2019-01-16T23:11:30.919Z,1.00
2019-01-16T23:14:21.228Z,1.00
2019-01-16T23:17:14.619Z,1.10
2019-01-16T23:19:56.886Z,1.20
2019-01-16T23:22:42.900Z,1.70
2019-01-16T23:25:29.253Z,1.40
2019-01-16T23:28:18.395Z,1.40
2019-01-16T23:31:11.328Z,1.40
2019-01-16T23:34:04.792Z,1.40
2019-01-16T23:37:01.254Z,1.30
2019-01-16T23:39:51.673Z,1.60
2019-01-16T23:42:39.052Z,1.60
2019-01-16T23:45:23.383Z,1.70
2019-01-16T23:48:27.626Z,1.90
2019-01-16T23:51:13.690Z,2.20
2019-01-16T23:54:01.111Z,2.40
2019-01-16T23:56:47.088Z,2.80
2019-01-16T23:59:35.844Z,3.00
